
Distance (Route):
Temperature : -38.9°C
Humidity : 64.8%
Pressure : 288.4hPa| Receiver | Date | Latitude | Longitude | Direction | Speed | Altitude | Climb | Temperature | Humidity | Pressure | Voltage | Killtimer | Uptime | BKT | XDATA |
|---|---|---|---|---|---|---|---|---|---|---|---|---|---|---|---|
| GYPAP8-17 | 2026-09-04 12:59:35 | 45.72019 | 20.46289 | 165° | 82km/h | 9922m | -13.8m/s | -38.9°C | 64.8% | 288.4hPa | 2.6V | 08:11:00 | 00:00:00 | 00:00:00 | |
| GYPAP8-17 | 2026-09-04 12:58:13 | 45.73869 | 20.45781 | 172° | 99km/h | 11031m | -16.2m/s | -47.9°C | 53.6% | 244.6hPa | 2.6V | 00:00:00 | 00:00:00 | 00:00:00 | |
| LZ4TU-5 | 2026-09-04 12:56:49 | 45.76120 | 20.45069 | 169° | 113km/h | 12180m | -15.4m/s | -57.7°C | 48.5% | 204.6hPa | 2.6V | 08:13:00 | 00:00:00 | 00:00:00 | |
| LZ4TU-5 | 2026-09-04 12:56:45 | 45.76232 | 20.45034 | 169° | 113km/h | 12242m | -15.1m/s | -58.2°C | 47.4% | 202.7hPa | 2.6V | 00:00:00 | 00:00:00 | 00:00:00 | |
| 9A1FER-10 | 2026-09-04 12:55:32 | 45.78330 | 20.44521 | 180° | 99km/h | 13149m | -10.7m/s | -65.7°C | 39.5% | 174.6hPa | 2.6V | 00:00:00 | 02:06:12 | 00:00:00 | |
| GYPAP8-17 | 2026-09-04 12:54:27 | 45.79695 | 20.44262 | 157° | 80km/h | 13841m | -10.9m/s | -63.6°C | 7.2% | 156.0hPa | 2.6V | 08:16:00 | 00:00:00 | 00:00:00 | |
| 9A1FER-10 | 2026-09-04 12:54:09 | 45.80097 | 20.44053 | 164° | 75km/h | 14042m | -10.5m/s | -63.0°C | 9.9% | 150.9hPa | 2.6V | 08:16:00 | 02:04:49 | 00:00:00 | |
| 9A1FER-10 | 2026-09-04 12:53:54 | 45.80374 | 20.43964 | 172° | 55km/h | 14201m | -10.6m/s | -60.1°C | 6.9% | 147.1hPa | 2.6V | 00:00:00 | 02:04:34 | 00:00:00 | |
| LZ4TU-5 | 2026-09-04 12:53:52 | 45.80406 | 20.43958 | 174° | 62km/h | 14222m | -10.2m/s | -59.9°C | 3.2% | 146.7hPa | 2.6V | 00:00:00 | 00:00:00 | 00:00:00 | |
| LZ4TU-5 | 2026-09-04 12:53:47 | 45.80466 | 20.43945 | 171° | 57km/h | 14264m | -10.4m/s | -60.0°C | 3.1% | 145.7hPa | 2.6V | 00:00:00 | 00:00:00 | 00:00:00 | |
| 9A1FER-10 | 2026-09-04 12:53:39 | 45.80575 | 20.43899 | 154° | 47km/h | 14358m | -10.4m/s | -59.8°C | 6.0% | 143.5hPa | 2.6V | 00:00:00 | 02:04:19 | 00:00:00 | |
| 9A1FER-10 | 2026-09-04 12:53:24 | 45.80726 | 20.43756 | 151° | 53km/h | 14518m | -14.9m/s | -59.3°C | 5.7% | 139.9hPa | 2.6V | 00:00:00 | 02:04:04 | 00:00:00 | |
| 9A1FER-10 | 2026-09-04 12:53:09 | 45.80903 | 20.43620 | 154° | 35km/h | 14763m | -16.2m/s | -59.8°C | 5.9% | 134.7hPa | 2.6V | 00:00:00 | 02:03:49 | 00:00:00 | |
| 9A1FER-10 | 2026-09-04 12:52:54 | 45.81023 | 20.43546 | 148° | 40km/h | 15000m | -19.4m/s | -58.9°C | 5.4% | 129.8hPa | 2.6V | 00:00:00 | 02:03:34 | 00:00:00 | |
| 9A1FER-10 | 2026-09-04 12:52:39 | 45.81144 | 20.43410 | 146° | 38km/h | 15274m | -16.7m/s | -59.7°C | 5.5% | 124.2hPa | 2.6V | 00:00:00 | 02:03:19 | 00:00:00 | |
| 9A1FER-10 | 2026-09-04 12:52:18 | 45.81338 | 20.43257 | 139° | 42km/h | 15623m | -17.9m/s | -59.3°C | 5.3% | 117.4hPa | 2.6V | 00:00:00 | 02:02:58 | 00:00:00 | |
| 9A1FER-10 | 2026-09-04 12:52:03 | 45.81451 | 20.43090 | 132° | 49km/h | 15893m | -18.1m/s | -59.6°C | 5.4% | 112.4hPa | 2.6V | 00:00:00 | 02:02:43 | 00:00:00 | |
| 9A1FER-10 | 2026-09-04 12:51:48 | 45.81552 | 20.42870 | 122° | 46km/h | 16169m | -15.5m/s | -58.8°C | 5.3% | 107.6hPa | 2.6V | 08:18:00 | 02:02:28 | 00:00:00 | |
| LZ4TU-5 | 2026-09-04 12:51:46 | 45.81565 | 20.42840 | 126° | 47km/h | 16204m | -17.4m/s | -58.7°C | 1.8% | 107.0hPa | 2.7V | 08:18:00 | 00:00:00 | 00:00:00 | |
| 9A1FER-10 | 2026-09-04 12:51:33 | 45.81652 | 20.42663 | 121° | 37km/h | 16435m | -20.9m/s | -57.3°C | 4.9% | 103.2hPa | 2.7V | 00:00:00 | 02:02:13 | 00:00:00 | |
| 9A1FER-10 | 2026-09-04 12:51:04 | 45.81735 | 20.42359 | 119° | 22km/h | 16945m | -20.1m/s | -55.2°C | 3.8% | 95.3hPa | 2.7V | 00:00:00 | 02:01:43 | 00:00:00 | |
| 9A1FER-10 | 2026-09-04 12:50:48 | 45.81772 | 20.42250 | 118° | 22km/h | 17254m | -19.6m/s | -57.1°C | 4.3% | 90.8hPa | 2.7V | 00:00:00 | 02:01:28 | 00:00:00 | |
| 9A1FER-10 | 2026-09-04 12:50:33 | 45.81828 | 20.42169 | 111° | 22km/h | 17550m | -21.2m/s | -57.2°C | 4.2% | 86.6hPa | 2.7V | 00:00:00 | 02:01:13 | 00:00:00 | |
| 9A1FER-10 | 2026-09-04 12:50:18 | 45.81796 | 20.42062 | 66° | 35km/h | 17841m | -19.1m/s | -58.5°C | 4.8% | 82.7hPa | 2.7V | 00:00:00 | 02:00:58 | 00:00:00 | |
| LZ4TU-5 | 2026-09-04 12:50:01 | 45.81790 | 20.41859 | 107° | 26km/h | 18153m | -18.3m/s | -57.6°C | 0% | 78.7hPa | 2.6V | 00:00:00 | 00:00:00 | 00:00:00 | |
| LZ4TU-5 | 2026-09-04 12:49:56 | 45.81794 | 20.41819 | 94° | 27km/h | 18223m | -16.5m/s | -57.1°C | 1.3% | 77.8hPa | 2.6V | 00:00:00 | 00:00:00 | 00:00:00 | |
| 9A1FER-10 | 2026-09-04 12:49:48 | 45.81801 | 20.41732 | 101° | 35km/h | 18376m | -17.1m/s | -56.9°C | 4.5% | 75.9hPa | 2.6V | 00:00:00 | 02:00:28 | 00:00:00 | |
| 9A1FER-10 | 2026-09-04 12:49:33 | 45.81870 | 20.41578 | 143° | 16km/h | 18620m | -16.1m/s | -56.1°C | 4.3% | 72.9hPa | 2.6V | 08:20:00 | 02:00:13 | 00:00:00 | |
| 9A1FER-10 | 2026-09-04 12:49:18 | 45.81906 | 20.41511 | 106° | 22km/h | 18876m | -15.4m/s | -55.0°C | 3.8% | 70.1hPa | 2.6V | 00:00:00 | 01:59:58 | 00:00:00 | |
| 9A1FER-10 | 2026-09-04 12:49:03 | 45.81921 | 20.41392 | 119° | 24km/h | 19110m | -17.3m/s | -56.2°C | 4.3% | 67.5hPa | 2.6V | 00:00:00 | 01:59:43 | 00:00:00 | |
| 9A1FER-10 | 2026-09-04 12:48:48 | 45.81964 | 20.41282 | 109° | 15km/h | 19357m | -17.8m/s | -55.2°C | 3.8% | 65.0hPa | 2.6V | 00:00:00 | 01:59:28 | 00:00:00 | |
| 9A1FER-10 | 2026-09-04 12:48:33 | 45.81998 | 20.41220 | 121° | 16km/h | 19614m | -18.1m/s | -56.1°C | 4.2% | 62.4hPa | 2.6V | 00:00:00 | 01:59:13 | 00:00:00 | |
| 9A1FER-10 | 2026-09-04 12:48:18 | 45.82034 | 20.41146 | 129° | 13km/h | 19880m | -17.4m/s | -56.1°C | 4.2% | 59.9hPa | 2.6V | 00:00:00 | 01:58:58 | 00:00:00 | |
| 9A1FER-10 | 2026-09-04 12:48:03 | 45.82054 | 20.41098 | 36° | 9km/h | 20132m | -18.3m/s | -55.7°C | 4.1% | 57.5hPa | 2.6V | 00:00:00 | 01:58:43 | 00:00:00 | |
| LZ4TU-5 | 2026-09-04 12:47:59 | 45.82048 | 20.41093 | 26° | 9km/h | 20187m | -17.7m/s | -55.5°C | 1.1% | 57.1hPa | 2.6V | 00:00:00 | 00:00:00 | 00:00:00 | |
| LZ4TU-5 | 2026-09-04 12:47:55 | 45.82041 | 20.41086 | 63° | 9km/h | 20257m | -17.3m/s | -56.0°C | 1.2% | 56.5hPa | 2.6V | 00:00:00 | 00:00:00 | 00:00:00 | |
| 9A1FER-10 | 2026-09-04 12:47:48 | 45.82042 | 20.41063 | 143° | 15km/h | 20392m | -17.3m/s | -56.0°C | 4.2% | 55.2hPa | 2.6V | 00:00:00 | 01:58:28 | 00:00:00 | |
| 9A1FER-10 | 2026-09-04 12:47:33 | 45.82091 | 20.41068 | 217° | 9km/h | 20662m | -19.2m/s | -55.9°C | 4.3% | 53.0hPa | 2.6V | 00:00:00 | 01:58:13 | 00:00:00 | |
| 9A1FER-10 | 2026-09-04 12:47:18 | 45.82106 | 20.41098 | 309° | 15km/h | 20953m | -16.0m/s | -54.3°C | 3.7% | 50.6hPa | 2.6V | 08:23:00 | 01:57:58 | 00:00:00 | |
| 9A1FER-10 | 2026-09-04 12:47:04 | 45.82060 | 20.41113 | 15° | 5km/h | 21213m | -17.0m/s | -55.4°C | 4.1% | 48.5hPa | 2.7V | 00:00:00 | 01:57:43 | 00:00:00 | |
| 9A1FER-10 | 2026-09-04 12:46:48 | 45.82043 | 20.41134 | 336° | 18km/h | 21489m | -18.8m/s | -54.6°C | 4.0% | 46.5hPa | 2.7V | 00:00:00 | 01:57:28 | 00:00:00 | |
| 9A1FER-10 | 2026-09-04 12:46:33 | 45.81988 | 20.41108 | 68° | 7km/h | 21784m | -21.4m/s | -54.6°C | 3.9% | 44.4hPa | 2.7V | 00:00:00 | 01:57:13 | 00:00:00 | |
| 9A1FER-10 | 2026-09-04 12:46:18 | 45.81982 | 20.41078 | 77° | 7km/h | 22080m | -18.5m/s | -54.8°C | 4.0% | 42.4hPa | 2.6V | 00:00:00 | 01:56:58 | 00:00:00 | |
| 9A1FER-10 | 2026-09-04 12:46:03 | 45.81987 | 20.41041 | 80° | 16km/h | 22355m | -16.2m/s | -54.0°C | 4.1% | 40.6hPa | 2.6V | 00:00:00 | 01:56:43 | 00:00:00 | |
| LZ4TU-5 | 2026-09-04 12:45:59 | 45.81986 | 20.41031 | 86° | 13km/h | 22405m | -17.1m/s | -53.7°C | 1.0% | 40.3hPa | 2.6V | 00:00:00 | 00:00:00 | 00:00:00 | |
| LZ4TU-5 | 2026-09-04 12:45:55 | 45.81985 | 20.41010 | 93° | 16km/h | 22478m | -19.3m/s | -53.1°C | 1.0% | 39.9hPa | 2.6V | 00:00:00 | 00:00:00 | 00:00:00 | |
| 9A1FER-10 | 2026-09-04 12:45:15 | 45.82026 | 20.41101 | 338° | 15km/h | 23283m | -17.3m/s | -52.1°C | 3.4% | 35.2hPa | 2.6V | 00:00:00 | 01:55:55 | 00:00:00 | |
| GYPAP8-17 | 2026-09-04 12:45:10 | 45.82005 | 20.41112 | 343° | 22km/h | 23355m | -18.1m/s | -52.8°C | 0.9% | 34.8hPa | 2.6V | 00:00:00 | 00:00:00 | 00:00:00 | |
| 9A1FER-10 | 2026-09-04 12:45:00 | 45.81978 | 20.41120 | 199° | 9km/h | 23544m | -14.5m/s | -52.3°C | 3.5% | 33.8hPa | 2.6V | 00:00:00 | 01:55:40 | 00:00:00 | |
| 9A1FER-10 | 2026-09-04 12:44:44 | 45.81947 | 20.41118 | 33° | 15km/h | 23789m | -15.9m/s | -51.8°C | 3.5% | 32.5hPa | 2.6V | 00:00:00 | 01:55:24 | 00:00:00 | |
| 9A1FER-10 | 2026-09-04 12:44:29 | 45.81938 | 20.41046 | 99° | 15km/h | 24026m | -14.9m/s | -51.3°C | 3.4% | 31.3hPa | 2.6V | 08:26:00 | 01:55:09 | 00:00:00 | |
| 9A1FER-10 | 2026-09-04 12:44:13 | 45.81897 | 20.40997 | 36° | 20km/h | 24292m | -15.0m/s | -51.1°C | 3.5% | 30.0hPa | 2.7V | 00:00:00 | 01:54:53 | 00:00:00 | |
| 9A1FER-10 | 2026-09-04 12:43:58 | 45.81850 | 20.40899 | 65° | 20km/h | 24541m | -16.3m/s | -50.1°C | 3.2% | 28.9hPa | 2.7V | 00:00:00 | 01:54:38 | 00:00:00 | |
| LZ4TU-5 | 2026-09-04 12:43:56 | 45.81848 | 20.40892 | 71° | 20km/h | 24557m | -17.1m/s | -50.2°C | 0.8% | 28.9hPa | 2.7V | 00:00:00 | 00:00:00 | 00:00:00 | |
| 9A1FER-10 | 2026-09-04 12:42:37 | 45.81900 | 20.40588 | 68° | 11km/h | 26135m | -23.7m/s | -48.8°C | 3.0% | 22.7hPa | 2.7V | 00:00:00 | 01:53:17 | 00:00:00 | |
| LZ4TU-5 | 2026-09-04 12:41:18 | 45.81782 | 20.40328 | 55° | 20km/h | 28079m | -25.4m/s | -45.3°C | 0.6% | 16.9hPa | 2.7V | 00:00:00 | 00:00:00 | 00:00:00 | |
| LZ4TU-5 | 2026-09-04 12:41:13 | 45.81775 | 20.40305 | 99° | 16km/h | 28181m | -26.9m/s | -44.8°C | 0.6% | 16.7hPa | 2.7V | 00:00:00 | 00:00:00 | 00:00:00 | |
| LZ4TU-5 | 2026-09-04 12:39:09 | 45.81498 | 20.40200 | 351° | 15km/h | 29609m | 5.8m/s | -43.5°C | 0.6% | 13.4hPa | 2.7V | 00:00:00 | 00:00:00 | 00:00:00 | |
| LZ4TU-5 | 2026-09-04 12:37:07 | 45.81414 | 20.40124 | 106° | 7km/h | 28746m | 7.7m/s | -43.9°C | 0% | 15.2hPa | 2.7V | 00:00:00 | 00:00:00 | 00:00:00 | |
| LZ4TU-5 | 2026-09-04 12:35:10 | 45.81483 | 20.39570 | 49° | 20km/h | 27991m | 7.3m/s | -46.2°C | 0% | 17.1hPa | 2.7V | 00:00:00 | 00:00:00 | 00:00:00 | |
| LZ4TU-5 | 2026-09-04 12:35:06 | 45.81478 | 20.39541 | 100° | 27km/h | 27964m | 6.3m/s | -46.0°C | 0% | 17.1hPa | 2.7V | 00:00:00 | 00:00:00 | 00:00:00 | |
| 9A1FER-10 | 2026-09-04 12:33:34 | 45.81147 | 20.39183 | 19° | 13km/h | 27331m | 6.7m/s | -46.4°C | 2.7% | 18.8hPa | 2.7V | 00:00:00 | 01:44:14 | 00:00:00 | |
| 9A1FER-10 | 2026-09-04 12:33:12 | 45.81095 | 20.39165 | 42° | 9km/h | 27178m | 7.6m/s | -47.4°C | 2.9% | 19.3hPa | 2.7V | 00:00:00 | 01:43:52 | 00:00:00 | |
| LZ4TU-5 | 2026-09-04 12:32:58 | 45.81103 | 20.39169 | 83° | 16km/h | 27085m | 7.8m/s | -47.5°C | 0% | 19.6hPa | 2.7V | 00:00:00 | 00:00:00 | 00:00:00 | |
| 9A1FER-10 | 2026-09-04 12:31:07 | 45.81151 | 20.38849 | 296° | 7km/h | 26386m | 7.2m/s | -49.2°C | 3.2% | 21.8hPa | 2.7V | 00:00:00 | 01:41:47 | 00:00:00 | |
| 9A1FER-10 | 2026-09-04 12:30:50 | 45.81158 | 20.38818 | 64° | 13km/h | 26280m | 5.1m/s | -49.1°C | 3.2% | 22.1hPa | 2.7V | 00:00:00 | 01:41:30 | 00:00:00 | |
| LZ4TU-5 | 2026-09-04 12:30:48 | 45.81156 | 20.38812 | 61° | 20km/h | 26274m | 6.9m/s | -49.1°C | 0% | 22.2hPa | 2.7V | 00:00:00 | 00:00:00 | 00:00:00 | |
| 9A1FER-10 | 2026-09-04 12:30:24 | 45.81161 | 20.38735 | 75° | 11km/h | 26117m | 7.1m/s | -49.2°C | 3.1% | 22.7hPa | 2.7V | 00:00:00 | 01:41:04 | 00:00:00 | |
| 9A1FER-10 | 2026-09-04 12:29:55 | 45.81120 | 20.38653 | 19° | 13km/h | 25935m | 6.3m/s | -49.8°C | 3.3% | 23.3hPa | 2.7V | 00:00:00 | 01:40:35 | 08:30:00 | |
| 9A1FER-10 | 2026-09-04 12:29:40 | 45.81082 | 20.38631 | 247° | 11km/h | 25840m | 6.8m/s | -50.0°C | 3.3% | 23.7hPa | 2.6V | 00:00:00 | 01:40:20 | 00:00:00 | |
| GYPAP8-17 | 2026-09-04 12:29:33 | 45.81080 | 20.38623 | 69° | 16km/h | 25801m | 7.9m/s | -49.9°C | 0.8% | 23.9hPa | 2.6V | 00:00:00 | 00:00:00 | 00:00:00 | |
| 9A1FER-10 | 2026-09-04 12:29:25 | 45.81086 | 20.38601 | 216° | 9km/h | 25746m | 5.8m/s | -49.9°C | 3.2% | 24.0hPa | 2.6V | 00:00:00 | 01:40:05 | 00:00:00 | |
| 9A1FER-10 | 2026-09-04 12:29:10 | 45.81102 | 20.38580 | 166° | 15km/h | 25648m | 5.6m/s | -49.8°C | 3.3% | 24.4hPa | 2.6V | 00:00:00 | 01:39:50 | 00:00:00 | |
| 9A1FER-10 | 2026-09-04 12:28:55 | 45.81150 | 20.38557 | 147° | 22km/h | 25550m | 6.5m/s | -49.7°C | 3.3% | 24.7hPa | 2.6V | 00:00:00 | 01:39:35 | 00:00:00 | |
| LZ4TU-5 | 2026-09-04 12:28:47 | 45.81173 | 20.38528 | 115° | 20km/h | 25504m | 6.0m/s | -49.6°C | 0% | 25.0hPa | 2.6V | 00:00:00 | 00:00:00 | 00:00:00 | |
| 9A1FER-10 | 2026-09-04 12:28:40 | 45.81204 | 20.38472 | 144° | 22km/h | 25450m | 6.0m/s | -49.4°C | 3.2% | 25.1hPa | 2.6V | 00:00:00 | 01:39:20 | 00:00:00 | |
| 9A1FER-10 | 2026-09-04 12:28:25 | 45.81250 | 20.38385 | 149° | 16km/h | 25352m | 7.2m/s | -49.4°C | 3.1% | 25.5hPa | 2.6V | 00:00:00 | 01:39:05 | 00:00:00 | |
| 9A1FER-10 | 2026-09-04 12:28:11 | 45.81273 | 20.38308 | 125° | 13km/h | 25255m | 6.9m/s | -49.5°C | 3.1% | 25.9hPa | 2.7V | 00:00:00 | 01:38:50 | 00:00:00 | |
| 9A1FER-10 | 2026-09-04 12:27:55 | 45.81279 | 20.38241 | 85° | 13km/h | 25156m | 5.7m/s | -49.6°C | 3.1% | 26.3hPa | 2.7V | 00:00:00 | 01:38:35 | 00:00:00 | |
| 9A1FER-10 | 2026-09-04 12:27:40 | 45.81267 | 20.38176 | 63° | 16km/h | 25058m | 5.7m/s | -50.0°C | 3.2% | 26.7hPa | 2.7V | 00:00:00 | 01:38:20 | 08:30:00 | |
| 9A1FER-10 | 2026-09-04 12:27:25 | 45.81270 | 20.38090 | 89° | 22km/h | 24960m | 6.8m/s | -50.0°C | 3.2% | 27.1hPa | 2.7V | 00:00:00 | 01:38:05 | 00:00:00 | |
| 9A1FER-10 | 2026-09-04 12:27:10 | 45.81305 | 20.37998 | 109° | 24km/h | 24866m | 5.7m/s | -49.7°C | 3.3% | 27.5hPa | 2.7V | 00:00:00 | 01:37:50 | 00:00:00 | |
| 9A1FER-10 | 2026-09-04 12:26:55 | 45.81321 | 20.37881 | 98° | 18km/h | 24771m | 5.0m/s | -49.7°C | 3.2% | 27.8hPa | 2.7V | 00:00:00 | 01:37:35 | 00:00:00 | |
| LZ4TU-5 | 2026-09-04 12:26:42 | 45.81323 | 20.37818 | 78° | 29km/h | 24698m | 5.3m/s | -50.0°C | 0% | 28.2hPa | 2.6V | 00:00:00 | 00:00:00 | 00:00:00 | |
| 9A1FER-10 | 2026-09-04 12:26:38 | 45.81315 | 20.37784 | 71° | 24km/h | 24666m | 7.8m/s | -50.0°C | 3.3% | 28.3hPa | 2.6V | 00:00:00 | 01:37:18 | 00:00:00 | |
| 9A1FER-10 | 2026-09-04 12:26:23 | 45.81275 | 20.37687 | 71° | 29km/h | 24575m | 5.0m/s | -50.0°C | 3.3% | 28.7hPa | 2.6V | 00:00:00 | 01:37:03 | 00:00:00 | |
| 9A1FER-10 | 2026-09-04 12:26:02 | 45.81183 | 20.37532 | 31° | 22km/h | 24445m | 5.6m/s | -49.5°C | 3.1% | 29.3hPa | 2.6V | 00:00:00 | 01:36:42 | 00:00:00 | |
| 9A1FER-10 | 2026-09-04 12:25:47 | 45.81126 | 20.37464 | 30° | 22km/h | 24352m | 6.2m/s | -50.3°C | 3.2% | 29.7hPa | 2.6V | 00:00:00 | 01:36:27 | 00:00:00 | |
| 9A1FER-10 | 2026-09-04 12:25:19 | 45.80997 | 20.37384 | 352° | 16km/h | 24182m | 7.4m/s | -51.3°C | 3.4% | 30.5hPa | 2.6V | 00:00:00 | 01:35:59 | 00:00:00 | |
| 9A1FER-10 | 2026-09-04 12:25:04 | 45.80971 | 20.37352 | 3° | 13km/h | 24089m | 6.0m/s | -51.0°C | 3.3% | 31.0hPa | 2.6V | 00:00:00 | 01:35:44 | 08:30:00 | |
| 9A1FER-10 | 2026-09-04 12:24:49 | 45.80960 | 20.37306 | 46° | 11km/h | 23998m | 4.4m/s | -51.6°C | 3.4% | 31.4hPa | 2.6V | 00:00:00 | 01:35:29 | 00:00:00 | |
| LZ4TU-5 | 2026-09-04 12:24:40 | 45.80960 | 20.37260 | 91° | 16km/h | 23952m | 4.8m/s | -51.8°C | 0% | 31.7hPa | 2.6V | 00:00:00 | 00:00:00 | 00:00:00 | |
| LZ4TU-5 | 2026-09-04 12:24:37 | 45.80959 | 20.37251 | 5° | 7km/h | 23928m | 6.4m/s | -51.8°C | 0% | 31.8hPa | 2.6V | 00:00:00 | 00:00:00 | 00:00:00 | |
| 9A1FER-10 | 2026-09-04 12:24:34 | 45.80952 | 20.37246 | 40° | 13km/h | 23910m | 6.0m/s | -51.8°C | 3.6% | 31.8hPa | 2.6V | 00:00:00 | 01:35:14 | 00:00:00 | |
| 9A1FER-10 | 2026-09-04 12:24:19 | 45.80921 | 20.37203 | 2° | 13km/h | 23820m | 4.7m/s | -51.9°C | 3.5% | 32.3hPa | 2.6V | 00:00:00 | 01:34:59 | 00:00:00 | |
| 9A1FER-10 | 2026-09-04 12:24:05 | 45.80876 | 20.37207 | 340° | 18km/h | 23731m | 5.9m/s | -51.8°C | 3.4% | 32.7hPa | 2.6V | 00:00:00 | 01:34:44 | 00:00:00 | |
| LZ4TU-5 | 2026-09-04 12:22:27 | 45.80596 | 20.37629 | 309° | 20km/h | 23153m | 6.8m/s | -51.4°C | 0% | 35.8hPa | 2.6V | 00:00:00 | 00:00:00 | 00:00:00 | |
| GYPAP8-17 | 2026-09-04 12:20:25 | 45.80778 | 20.37631 | 83° | 9km/h | 22438m | 6.9m/s | -54.5°C | 1.1% | 40.0hPa | 2.6V | 00:00:00 | 00:00:00 | 00:00:00 | |
| LZ4TU-5 | 2026-09-04 12:20:19 | 45.80779 | 20.37611 | 66° | 13km/h | 22403m | 5.6m/s | -54.8°C | 0% | 40.3hPa | 2.6V | 00:00:00 | 00:00:00 | 00:00:00 | |
| 9A1FER-10 | 2026-09-04 12:19:13 | 45.80749 | 20.37445 | 137° | 5km/h | 22000m | 5.9m/s | -54.0°C | 3.9% | 42.9hPa | 2.6V | 00:00:00 | 01:29:53 | 00:00:00 | |
| 9A1FER-10 | 2026-09-04 12:18:40 | 45.80748 | 20.37405 | 29° | 13km/h | 21801m | 6.1m/s | -54.5°C | 4.0% | 44.2hPa | 2.6V | 00:00:00 | 01:29:20 | 00:00:00 | |
| LZ4TU-5 | 2026-09-04 12:18:27 | 45.80726 | 20.37382 | 20° | 15km/h | 21730m | 6.3m/s | -54.4°C | 0% | 44.7hPa | 2.6V | 00:00:00 | 00:00:00 | 00:00:00 | |
| 9A1FER-10 | 2026-09-04 12:18:25 | 45.80710 | 20.37375 | 20° | 20km/h | 21713m | 6.4m/s | -54.4°C | 4.0% | 44.8hPa | 2.6V | 00:00:00 | 01:29:05 | 00:00:00 | |
| 9A1FER-10 | 2026-09-04 12:18:10 | 45.80638 | 20.37350 | 352° | 20km/h | 21623m | 5.8m/s | -54.5°C | 3.9% | 45.4hPa | 2.6V | 00:00:00 | 01:28:50 | 08:30:00 | |
| 9A1FER-10 | 2026-09-04 12:17:55 | 45.80565 | 20.37370 | 333° | 16km/h | 21534m | 5.7m/s | -54.6°C | 3.9% | 46.1hPa | 2.6V | 00:00:00 | 01:28:35 | 00:00:00 | |
| 9A1FER-10 | 2026-09-04 12:17:39 | 45.80514 | 20.37419 | 309° | 7km/h | 21441m | 4.9m/s | -54.8°C | 3.9% | 46.7hPa | 2.6V | 00:00:00 | 01:28:19 | 00:00:00 | |
| 9A1FER-10 | 2026-09-04 12:17:22 | 45.80505 | 20.37455 | 323° | 5km/h | 21341m | 5.1m/s | -55.0°C | 4.0% | 47.5hPa | 2.6V | 00:00:00 | 01:28:02 | 00:00:00 | |
| 9A1FER-10 | 2026-09-04 12:17:06 | 45.80487 | 20.37462 | 25° | 15km/h | 21249m | 4.9m/s | -55.4°C | 4.1% | 48.1hPa | 2.7V | 00:00:00 | 01:27:46 | 00:00:00 | |
| GYPAP8-17 | 2026-09-04 12:16:55 | 45.80454 | 20.37447 | 1° | 16km/h | 21195m | 5.4m/s | -55.3°C | 1.2% | 48.6hPa | 2.7V | 00:00:00 | 00:00:00 | 00:00:00 | |
| 9A1FER-10 | 2026-09-04 12:16:51 | 45.80434 | 20.37451 | 338° | 15km/h | 21167m | 4.4m/s | -55.0°C | 4.0% | 48.8hPa | 2.7V | 00:00:00 | 01:27:31 | 00:00:00 | |
| LZ4TU-5 | 2026-09-04 12:16:31 | 45.80373 | 20.37496 | 342° | 16km/h | 21061m | 4.1m/s | -54.9°C | 0% | 49.7hPa | 2.7V | 00:00:00 | 00:00:00 | 00:00:00 | |
| LZ4TU-5 | 2026-09-04 12:16:27 | 45.80364 | 20.37507 | 291° | 13km/h | 21039m | 6.6m/s | -54.9°C | 0% | 49.8hPa | 2.7V | 00:00:00 | 00:00:00 | 00:00:00 | |
| 9A1FER-10 | 2026-09-04 12:15:47 | 45.80409 | 20.37588 | 190° | 11km/h | 20807m | 5.5m/s | -56.2°C | 4.3% | 51.6hPa | 2.7V | 00:00:00 | 01:26:27 | 00:00:00 | |
| 9A1FER-10 | 2026-09-04 12:15:32 | 45.80444 | 20.37625 | 184° | 18km/h | 20721m | 4.6m/s | -56.3°C | 4.2% | 52.3hPa | 2.6V | 00:00:00 | 01:26:12 | 00:00:00 | |
| 9A1FER-10 | 2026-09-04 12:15:17 | 45.80507 | 20.37669 | 185° | 16km/h | 20638m | 4.6m/s | -56.4°C | 4.4% | 53.0hPa | 2.6V | 00:00:00 | 01:25:57 | 00:00:00 | |
| 9A1FER-10 | 2026-09-04 12:15:02 | 45.80571 | 20.37668 | 179° | 15km/h | 20553m | 6.3m/s | -55.9°C | 4.3% | 53.7hPa | 2.6V | 00:00:00 | 01:25:42 | 08:30:00 | |
| 9A1FER-10 | 2026-09-04 12:14:47 | 45.80625 | 20.37658 | 122° | 9km/h | 20470m | 6.1m/s | -55.8°C | 4.1% | 54.4hPa | 2.6V | 00:00:00 | 01:25:27 | 00:00:00 | |
| 9A1FER-10 | 2026-09-04 12:14:32 | 45.80649 | 20.37628 | 109° | 5km/h | 20386m | 4.9m/s | -55.9°C | 4.2% | 55.1hPa | 2.6V | 00:00:00 | 01:25:12 | 00:00:00 | |
| LZ4TU-5 | 2026-09-04 12:14:22 | 45.80646 | 20.37624 | 74° | 7km/h | 20335m | 6.4m/s | -55.9°C | 0% | 55.7hPa | 2.6V | 00:00:00 | 00:00:00 | 00:00:00 | |
| 9A1FER-10 | 2026-09-04 12:14:17 | 45.80637 | 20.37606 | 5° | 11km/h | 20302m | 5.8m/s | -55.7°C | 4.2% | 55.9hPa | 2.6V | 00:00:00 | 01:24:57 | 00:00:00 | |
| 9A1FER-10 | 2026-09-04 12:14:02 | 45.80600 | 20.37598 | 350° | 9km/h | 20219m | 6.1m/s | -55.3°C | 4.1% | 56.6hPa | 2.7V | 00:00:00 | 01:24:42 | 00:00:00 | |
| 9A1FER-10 | 2026-09-04 12:13:47 | 45.80567 | 20.37616 | 330° | 11km/h | 20136m | 6.4m/s | -54.8°C | 4.1% | 57.3hPa | 2.7V | 00:00:00 | 01:24:27 | 00:00:00 | |
| 9A1FER-10 | 2026-09-04 12:13:32 | 45.80531 | 20.37623 | 1° | 11km/h | 20052m | 5.4m/s | -54.8°C | 4.0% | 58.1hPa | 2.7V | 00:00:00 | 01:24:12 | 00:00:00 | |
| 9A1FER-10 | 2026-09-04 12:13:17 | 45.80516 | 20.37609 | 97° | 9km/h | 19969m | 6.5m/s | -55.0°C | 4.1% | 58.9hPa | 2.6V | 00:00:00 | 01:23:57 | 00:00:00 | |
| 9A1FER-10 | 2026-09-04 12:13:02 | 45.80543 | 20.37582 | 120° | 20km/h | 19884m | 6.1m/s | -55.0°C | 4.1% | 59.7hPa | 2.6V | 00:00:00 | 01:23:42 | 00:00:00 | |
| OM5KV | 2026-09-04 12:12:30 | 45.80619 | 20.37414 | 115° | 18km/h | 19715m | 4.8m/s | 0°C | 0% | 0hPa | 2.6V | 00:00:00 | 00:00:00 | 00:00:00 | |
| OM5KV | 2026-09-04 12:12:10 | 45.80658 | 20.37319 | 102° | 24km/h | 19609m | 5.3m/s | 0°C | 0% | 0hPa | 2.6V | 00:00:00 | 00:00:00 | 00:00:00 | |
| OM5KV | 2026-09-04 12:12:09 | 45.80660 | 20.37302 | 106° | 24km/h | 19597m | 5.8m/s | 0°C | 0% | 0hPa | 2.6V | 00:00:00 | 00:00:00 | 00:00:00 | |
| OM5KV | 2026-09-04 12:12:05 | 45.80663 | 20.37280 | 100° | 16km/h | 19581m | 4.2m/s | 0°C | 0% | 0hPa | 2.6V | 00:00:00 | 00:00:00 | 00:00:00 | |
| OM5KV | 2026-09-04 12:12:01 | 45.80670 | 20.37259 | 122° | 16km/h | 19561m | 4.5m/s | 0°C | 0% | 0hPa | 2.6V | 00:00:00 | 00:00:00 | 00:00:00 | |
| OM5KV | 2026-09-04 12:11:55 | 45.80675 | 20.37226 | 99° | 16km/h | 19528m | 6.1m/s | 0°C | 0% | 0hPa | 2.6V | 00:00:00 | 00:00:00 | 00:00:00 | |
| 9A1FER-10 | 2026-09-04 12:10:54 | 45.80745 | 20.36802 | 119° | 26km/h | 19198m | 6.2m/s | -55.0°C | 4.1% | 66.4hPa | 2.6V | 00:00:00 | 01:21:34 | 08:30:00 | |
| 9A1FER-10 | 2026-09-04 12:10:39 | 45.80787 | 20.36674 | 105° | 26km/h | 19119m | 5.9m/s | -55.3°C | 4.0% | 67.2hPa | 2.6V | 00:00:00 | 01:21:19 | 00:00:00 | |
| 9A1FER-10 | 2026-09-04 12:10:24 | 45.80794 | 20.36539 | 90° | 24km/h | 19041m | 3.5m/s | -55.8°C | 4.3% | 68.1hPa | 2.6V | 00:00:00 | 01:21:04 | 00:00:00 | |
| LZ4TU-5 | 2026-09-04 12:10:19 | 45.80797 | 20.36502 | 95° | 31km/h | 19022m | 5.1m/s | -55.9°C | 0% | 68.4hPa | 2.6V | 00:00:00 | 00:00:00 | 00:00:00 | |
| 9A1FER-10 | 2026-09-04 12:10:09 | 45.80789 | 20.36412 | 74° | 16km/h | 18966m | 5.1m/s | -55.8°C | 4.3% | 68.9hPa | 2.6V | 00:00:00 | 01:20:49 | 00:00:00 | |
| 9A1FER-10 | 2026-09-04 12:09:54 | 45.80779 | 20.36327 | 94° | 13km/h | 18888m | 4.7m/s | -55.2°C | 4.1% | 69.8hPa | 2.6V | 00:00:00 | 01:20:34 | 00:00:00 | |
| 9A1FER-10 | 2026-09-04 12:09:39 | 45.80778 | 20.36255 | 126° | 13km/h | 18811m | 5.1m/s | -55.3°C | 4.2% | 70.6hPa | 2.6V | 00:00:00 | 01:20:19 | 00:00:00 | |
| 9A1FER-10 | 2026-09-04 12:09:24 | 45.80813 | 20.36210 | 145° | 22km/h | 18735m | 4.0m/s | -55.5°C | 4.1% | 71.5hPa | 2.6V | 00:00:00 | 01:20:04 | 00:00:00 | |
| 9A1FER-10 | 2026-09-04 12:09:09 | 45.80880 | 20.36140 | 138° | 33km/h | 18658m | 6.0m/s | -56.4°C | 4.3% | 72.3hPa | 2.6V | 00:00:00 | 01:19:49 | 00:00:00 | |
| 9A1FER-10 | 2026-09-04 12:08:54 | 45.80964 | 20.36001 | 119° | 37km/h | 18582m | 6.4m/s | -56.7°C | 4.3% | 73.2hPa | 2.6V | 00:00:00 | 01:19:34 | 00:00:00 | |
| 9A1FER-10 | 2026-09-04 12:08:39 | 45.81030 | 20.35817 | 117° | 31km/h | 18503m | 4.3m/s | -57.1°C | 4.5% | 74.2hPa | 2.6V | 00:00:00 | 01:19:19 | 08:30:00 | |
| 9A1FER-10 | 2026-09-04 12:08:24 | 45.81075 | 20.35663 | 97° | 27km/h | 18425m | 6.2m/s | -57.0°C | 4.4% | 75.0hPa | 2.6V | 00:00:00 | 01:19:04 | 00:00:00 | |
| LZ4TU-5 | 2026-09-04 12:08:20 | 45.81077 | 20.35633 | 94° | 27km/h | 18409m | 5.6m/s | -57.2°C | 0% | 75.3hPa | 2.6V | 00:00:00 | 00:00:00 | 00:00:00 | |
| 9A1FER-10 | 2026-09-04 12:08:09 | 45.81094 | 20.35516 | 79° | 22km/h | 18347m | 5.8m/s | -57.5°C | 4.5% | 76.0hPa | 2.6V | 00:00:00 | 01:18:49 | 00:00:00 | |
| 9A1FER-10 | 2026-09-04 12:07:54 | 45.81083 | 20.35397 | 93° | 22km/h | 18265m | 5.3m/s | -57.4°C | 4.5% | 77.0hPa | 2.6V | 00:00:00 | 01:18:34 | 00:00:00 | |
| 9A1FER-10 | 2026-09-04 12:07:39 | 45.81096 | 20.35282 | 108° | 22km/h | 18186m | 4.4m/s | -57.8°C | 4.6% | 77.9hPa | 2.6V | 00:00:00 | 01:18:19 | 00:00:00 | |
| 9A1FER-10 | 2026-09-04 12:07:24 | 45.81117 | 20.35167 | 99° | 31km/h | 18109m | 5.1m/s | -58.1°C | 4.7% | 78.9hPa | 2.6V | 00:00:00 | 01:18:04 | 00:00:00 | |
| 9A1FER-10 | 2026-09-04 12:07:09 | 45.81136 | 20.35001 | 84° | 33km/h | 18030m | 5.4m/s | -58.2°C | 4.7% | 79.9hPa | 2.6V | 00:00:00 | 01:17:49 | 00:00:00 | |
| 9A1FER-10 | 2026-09-04 12:06:54 | 45.81130 | 20.34823 | 70° | 29km/h | 17955m | 5.5m/s | -58.6°C | 4.9% | 80.9hPa | 2.7V | 00:00:00 | 01:17:34 | 00:00:00 | |
| 9A1FER-10 | 2026-09-04 12:06:39 | 45.81092 | 20.34675 | 64° | 26km/h | 17877m | 4.4m/s | -58.2°C | 4.7% | 81.9hPa | 2.7V | 00:00:00 | 01:17:19 | 00:00:00 | |
| 9A1FER-10 | 2026-09-04 12:06:24 | 45.81044 | 20.34558 | 53° | 22km/h | 17796m | 4.7m/s | -58.2°C | 4.9% | 82.9hPa | 2.7V | 00:00:00 | 01:17:04 | 08:30:00 | |
| 9A1FER-10 | 2026-09-04 12:06:09 | 45.81008 | 20.34463 | 113° | 16km/h | 17713m | 3.7m/s | -57.9°C | 4.8% | 84.0hPa | 2.7V | 00:00:00 | 01:16:49 | 00:00:00 | |
| LZ4TU-5 | 2026-09-04 12:05:56 | 45.81017 | 20.34399 | 114° | 13km/h | 17641m | 4.9m/s | -58.0°C | 0% | 85.0hPa | 2.7V | 00:00:00 | 00:00:00 | 00:00:00 | |
| 9A1FER-10 | 2026-09-04 12:05:54 | 45.81024 | 20.34386 | 134° | 22km/h | 17624m | 5.9m/s | -57.8°C | 4.7% | 85.2hPa | 2.7V | 00:00:00 | 01:16:34 | 00:00:00 | |
| LZ4TU-5 | 2026-09-04 12:05:52 | 45.81027 | 20.34380 | 133° | 22km/h | 17619m | 5.5m/s | -57.9°C | 0% | 85.4hPa | 2.7V | 00:00:00 | 00:00:00 | 00:00:00 | |
| 9A1FER-10 | 2026-09-04 12:05:39 | 45.81086 | 20.34310 | 149° | 31km/h | 17546m | 4.6m/s | -58.3°C | 5.0% | 86.3hPa | 2.7V | 00:00:00 | 01:16:19 | 00:00:00 | |
| 9A1FER-10 | 2026-09-04 12:05:24 | 45.81190 | 20.34229 | 150° | 29km/h | 17468m | 5.4m/s | -58.3°C | 5.0% | 87.4hPa | 2.6V | 00:00:00 | 01:16:04 | 00:00:00 | |
| 9A1FER-10 | 2026-09-04 12:05:09 | 45.81274 | 20.34131 | 137° | 26km/h | 17389m | 4.9m/s | -57.7°C | 4.8% | 88.5hPa | 2.6V | 00:00:00 | 01:15:49 | 00:00:00 | |
| 9A1FER-10 | 2026-09-04 12:04:54 | 45.81347 | 20.34047 | 142° | 18km/h | 17311m | 5.7m/s | -57.5°C | 4.7% | 89.6hPa | 2.6V | 00:00:00 | 01:15:34 | 00:00:00 | |
| 9A1FER-10 | 2026-09-04 12:04:39 | 45.81388 | 20.33965 | 106° | 18km/h | 17229m | 3.9m/s | -57.1°C | 4.7% | 90.8hPa | 2.6V | 00:00:00 | 01:15:19 | 00:00:00 | |
| 9A1FER-10 | 2026-09-04 12:04:24 | 45.81408 | 20.33870 | 96° | 20km/h | 17149m | 6.8m/s | -56.6°C | 4.5% | 91.9hPa | 2.6V | 00:00:00 | 01:15:04 | 00:00:00 | |
| 9A1FER-10 | 2026-09-04 12:04:09 | 45.81432 | 20.33773 | 98° | 24km/h | 17068m | 5.8m/s | -56.2°C | 4.4% | 93.1hPa | 2.6V | 00:00:00 | 01:14:49 | 08:30:00 | |
| LZ4TU-5 | 2026-09-04 12:03:56 | 45.81475 | 20.33700 | 120° | 26km/h | 17004m | 4.5m/s | -56.1°C | 0% | 94.1hPa | 2.6V | 00:00:00 | 00:00:00 | 00:00:00 | |
| 9A1FER-10 | 2026-09-04 12:03:54 | 45.81482 | 20.33674 | 111° | 27km/h | 16988m | 5.5m/s | -56.0°C | 4.4% | 94.3hPa | 2.6V | 00:00:00 | 01:14:34 | 00:00:00 | |
| LZ4TU-5 | 2026-09-04 12:03:51 | 45.81489 | 20.33654 | 120° | 31km/h | 16977m | 4.3m/s | -56.0°C | 0% | 0hPa | 2.6V | 00:00:00 | 00:00:00 | 00:00:00 | |
| 9A1FER-10 | 2026-09-04 12:03:24 | 45.81571 | 20.33443 | 105° | 22km/h | 16831m | 5.1m/s | -55.1°C | 4.2% | 96.6hPa | 2.6V | 00:00:00 | 01:14:04 | 00:00:00 | |
| 9A1FER-10 | 2026-09-04 12:03:09 | 45.81603 | 20.33339 | 106° | 20km/h | 16751m | 5.3m/s | -55.0°C | 4.3% | 97.9hPa | 2.6V | 00:00:00 | 01:13:49 | 00:00:00 | |
| 9A1FER-10 | 2026-09-04 12:02:54 | 45.81639 | 20.33243 | 122° | 29km/h | 16668m | 6.1m/s | -54.6°C | 4.1% | 99.1hPa | 2.6V | 00:00:00 | 01:13:34 | 00:00:00 | |
| 9A1FER-10 | 2026-09-04 12:02:39 | 45.81674 | 20.33098 | 95° | 27km/h | 16589m | 5.6m/s | -54.8°C | 4.1% | 100.4hPa | 2.6V | 00:00:00 | 01:13:19 | 00:00:00 | |
| GYPAP8-17 | 2026-09-04 12:02:36 | 45.81676 | 20.33082 | 104° | 22km/h | 16579m | 4.2m/s | -54.9°C | 1.5% | 100.6hPa | 2.7V | 00:00:00 | 00:00:00 | 00:00:00 | |
| 9A1FER-10 | 2026-09-04 12:02:24 | 45.81721 | 20.32968 | 111° | 44km/h | 16512m | 6.6m/s | -55.6°C | 4.4% | 101.6hPa | 2.7V | 00:00:00 | 01:13:04 | 00:00:00 | |
| 9A1FER-10 | 2026-09-04 12:02:09 | 45.81807 | 20.32769 | 137° | 49km/h | 16431m | 3.8m/s | -56.1°C | 4.5% | 102.9hPa | 2.7V | 00:00:00 | 01:12:49 | 00:00:00 | |
| LZ4TU-5 | 2026-09-04 12:02:04 | 45.81841 | 20.32722 | 133° | 46km/h | 16412m | 5.3m/s | -56.6°C | 0% | 0hPa | 2.7V | 00:00:00 | 00:00:00 | 00:00:00 | |
| 9A1FER-10 | 2026-09-04 12:01:54 | 45.81910 | 20.32554 | 125° | 49km/h | 16355m | 4.2m/s | -57.1°C | 4.8% | 104.2hPa | 2.7V | 00:00:00 | 01:12:34 | 08:30:00 | |
| 9A1FER-10 | 2026-09-04 12:01:39 | 45.82028 | 20.32345 | 138° | 55km/h | 16278m | 4.7m/s | -57.5°C | 5.0% | 105.4hPa | 2.7V | 00:00:00 | 01:12:19 | 00:00:00 | |
| 9A1FER-10 | 2026-09-04 12:01:24 | 45.82158 | 20.32110 | 130° | 51km/h | 16203m | 5.0m/s | -57.7°C | 5.0% | 106.7hPa | 2.7V | 00:00:00 | 01:12:04 | 00:00:00 | |
| 9A1FER-10 | 2026-09-04 12:01:09 | 45.82275 | 20.31889 | 124° | 57km/h | 16131m | 5.5m/s | -58.4°C | 5.3% | 107.9hPa | 2.7V | 00:00:00 | 01:11:49 | 00:00:00 | |
| 9A1FER-10 | 2026-09-04 12:00:54 | 45.82372 | 20.31616 | 124° | 49km/h | 16057m | 5.0m/s | -58.2°C | 5.3% | 109.2hPa | 2.7V | 00:00:00 | 01:11:34 | 00:00:00 | |
| 9A1FER-10 | 2026-09-04 12:00:39 | 45.82467 | 20.31382 | 128° | 51km/h | 15981m | 5.8m/s | -58.1°C | 4.9% | 110.5hPa | 2.7V | 00:00:00 | 01:11:19 | 00:00:00 | |
| 9A1FER-10 | 2026-09-04 12:00:24 | 45.82590 | 20.31170 | 133° | 51km/h | 15906m | 4.6m/s | -59.3°C | 5.5% | 111.8hPa | 2.7V | 00:00:00 | 01:11:04 | 00:00:00 | |
| LZ4TU-5 | 2026-09-04 12:00:17 | 45.82657 | 20.31079 | 138° | 49km/h | 15871m | 3.7m/s | -59.7°C | 0% | 0hPa | 2.7V | 00:00:00 | 00:00:00 | 00:00:00 | |
| LZ4TU-5 | 2026-09-04 12:00:11 | 45.82699 | 20.31018 | 137° | 51km/h | 15847m | 5.5m/s | -60.0°C | 0% | 0hPa | 2.7V | 00:00:00 | 00:00:00 | 00:00:00 | |
| 9A1FER-10 | 2026-09-04 12:00:09 | 45.82726 | 20.30978 | 133° | 46km/h | 15832m | 4.6m/s | -59.8°C | 5.9% | 113.2hPa | 2.7V | 00:00:00 | 01:10:49 | 00:00:00 | |
| 9A1FER-10 | 2026-09-04 11:59:54 | 45.82851 | 20.30806 | 140° | 37km/h | 15751m | 3.8m/s | -59.7°C | 5.8% | 114.7hPa | 2.7V | 00:00:00 | 01:10:34 | 00:00:00 | |
| 9A1FER-10 | 2026-09-04 11:59:39 | 45.82949 | 20.30676 | 143° | 29km/h | 15673m | 4.8m/s | -59.3°C | 5.7% | 116.1hPa | 2.7V | 00:00:00 | 01:10:19 | 08:30:00 | |
| 9A1FER-10 | 2026-09-04 11:59:24 | 45.83045 | 20.30597 | 155° | 37km/h | 15596m | 4.0m/s | -59.1°C | 5.7% | 117.6hPa | 2.7V | 00:00:00 | 01:10:04 | 00:00:00 | |
| 9A1FER-10 | 2026-09-04 11:59:09 | 45.83168 | 20.30510 | 168° | 40km/h | 15519m | 4.9m/s | -59.0°C | 5.5% | 119.0hPa | 2.7V | 00:00:00 | 01:09:49 | 00:00:00 | |
| 9A1FER-10 | 2026-09-04 11:58:54 | 45.83308 | 20.30434 | 157° | 40km/h | 15441m | 5.1m/s | -59.1°C | 5.7% | 120.4hPa | 2.7V | 00:00:00 | 01:09:34 | 00:00:00 | |
| 9A1FER-10 | 2026-09-04 11:58:39 | 45.83453 | 20.30360 | 156° | 46km/h | 15363m | 4.9m/s | -58.9°C | 5.7% | 122.0hPa | 2.7V | 00:00:00 | 01:09:19 | 00:00:00 | |
| LZ4TU-5 | 2026-09-04 11:58:27 | 45.83567 | 20.30280 | 154° | 44km/h | 15304m | 5.5m/s | -58.8°C | 0% | 0hPa | 2.7V | 00:00:00 | 00:00:00 | 00:00:00 | |
| 9A1FER-10 | 2026-09-04 11:58:24 | 45.83608 | 20.30247 | 151° | 55km/h | 15283m | 6.1m/s | -58.7°C | 5.6% | 123.6hPa | 2.7V | 00:00:00 | 01:09:04 | 00:00:00 | |
| LZ4TU-5 | 2026-09-04 11:58:23 | 45.83608 | 20.30247 | 151° | 49km/h | 15283m | 6.1m/s | -58.7°C | 0% | 0hPa | 2.7V | 00:00:00 | 00:00:00 | 00:00:00 | |
| 9A1FER-10 | 2026-09-04 11:57:54 | 45.83950 | 20.29906 | 139° | 47km/h | 15121m | 6.1m/s | -58.8°C | 5.7% | 126.8hPa | 2.7V | 00:00:00 | 01:08:34 | 00:00:00 | |
| 9A1FER-10 | 2026-09-04 11:57:39 | 45.84090 | 20.29739 | 143° | 38km/h | 15046m | 5.6m/s | -58.5°C | 5.7% | 128.3hPa | 2.7V | 00:00:00 | 01:08:19 | 00:00:00 | |
| 9A1FER-10 | 2026-09-04 11:57:24 | 45.84208 | 20.29624 | 139° | 33km/h | 14969m | 5.1m/s | -58.0°C | 5.6% | 129.9hPa | 2.7V | 00:00:00 | 01:08:04 | 08:30:00 | |
| 9A1FER-10 | 2026-09-04 11:57:09 | 45.84308 | 20.29525 | 152° | 29km/h | 14895m | 4.5m/s | -57.6°C | 5.5% | 131.4hPa | 2.7V | 00:00:00 | 01:07:49 | 00:00:00 | |
| 9A1FER-10 | 2026-09-04 11:56:54 | 45.84408 | 20.29457 | 158° | 27km/h | 14824m | 4.2m/s | -57.4°C | 5.6% | 133.0hPa | 2.7V | 00:00:00 | 01:07:34 | 00:00:00 | |
| 9A1FER-10 | 2026-09-04 11:56:39 | 45.84507 | 20.29419 | 177° | 33km/h | 14754m | 3.9m/s | -57.0°C | 5.5% | 134.4hPa | 2.7V | 00:00:00 | 01:07:19 | 00:00:00 | |
| LZ4TU-5 | 2026-09-04 11:56:36 | 45.84520 | 20.29419 | 181° | 27km/h | 14745m | 4.7m/s | -57.0°C | 0% | 0hPa | 0V | 00:00:00 | 00:00:00 | 00:00:00 | |
| LZ4TU-5 | 2026-09-04 11:56:32 | 45.84548 | 20.29421 | 185° | 29km/h | 14725m | 5.0m/s | 0°C | 0% | 0hPa | 0V | 00:00:00 | 00:00:00 | 00:00:00 | |
| 9A1FER-10 | 2026-09-04 11:56:24 | 45.84630 | 20.29399 | 171° | 42km/h | 14672m | 5.7m/s | -57.7°C | 5.8% | 136.1hPa | 0V | 00:00:00 | 01:07:04 | 00:00:00 | |
| 9A1FER-10 | 2026-09-04 11:56:09 | 45.84784 | 20.29340 | 163° | 49km/h | 14604m | 4.3m/s | -58.3°C | 6.1% | 137.6hPa | 0V | 00:00:00 | 01:06:49 | 00:00:00 | |
| 9A1FER-10 | 2026-09-04 11:55:54 | 45.84955 | 20.29228 | 154° | 49km/h | 14539m | 5.0m/s | 0°C | 0% | 0hPa | 0V | 00:00:00 | 01:06:34 | 00:00:00 | |
| 9A1FER-10 | 2026-09-04 11:55:39 | 45.85116 | 20.29084 | 145° | 47km/h | 14473m | 5.3m/s | 0°C | 0% | 0hPa | 0V | 00:00:00 | 01:06:19 | 00:00:00 | |
| 9A1FER-10 | 2026-09-04 11:55:24 | 45.85260 | 20.28934 | 145° | 35km/h | 14406m | 4.0m/s | 0°C | 0% | 0hPa | 0V | 00:00:00 | 01:06:04 | 00:00:00 | |
| 9A1FER-10 | 2026-09-04 11:55:09 | 45.85373 | 20.28837 | 160° | 38km/h | 14320m | 6.3m/s | 0°C | 0% | 0hPa | 0V | 00:00:00 | 01:05:49 | 00:00:00 | |
| LZ4TU-5 | 2026-09-04 11:54:46 | 45.85637 | 20.28771 | 176° | 60km/h | 14198m | 3.8m/s | 0°C | 0% | 0hPa | 0V | 00:00:00 | 00:00:00 | 00:00:00 | |
| LZ4TU-5 | 2026-09-04 11:54:41 | 45.85717 | 20.28756 | 171° | 62km/h | 14172m | 4.1m/s | 0°C | 0% | 0hPa | 0V | 00:00:00 | 00:00:00 | 00:00:00 | |
| GYPAP8-17 | 2026-09-04 11:53:27 | 45.87170 | 20.28092 | 157° | 82km/h | 13814m | 6.1m/s | 0°C | 0% | 156.2hPa | 0V | 00:00:00 | 00:00:00 | 00:00:00 | |
| LZ4TU-5 | 2026-09-04 11:52:48 | 45.87834 | 20.27648 | 168° | 73km/h | 13603m | 5.7m/s | 0°C | 0% | 0hPa | 0V | 00:00:00 | 00:00:00 | 00:00:00 | |
| LZ4TU-5 | 2026-09-04 11:52:43 | 45.87924 | 20.27615 | 167° | 73km/h | 13577m | 6.1m/s | 0°C | 0% | 0hPa | 0V | 00:00:00 | 00:00:00 | 00:00:00 | |
| LZ4TU-5 | 2026-09-04 11:50:55 | 45.90758 | 20.27144 | 175° | 128km/h | 12956m | 4.0m/s | 0°C | 0% | 0hPa | 0V | 00:00:00 | 00:00:00 | 00:00:00 | |
| LZ4TU-5 | 2026-09-04 11:50:51 | 45.90882 | 20.27127 | 178° | 122km/h | 12935m | 4.4m/s | 0°C | 0% | 0hPa | 0V | 00:00:00 | 00:00:00 | 00:00:00 | |
| LZ4TU-5 | 2026-09-04 11:48:54 | 45.94314 | 20.26444 | 170° | 113km/h | 12302m | 6.4m/s | 0°C | 0% | 0hPa | 0V | 00:00:00 | 00:00:00 | 00:00:00 | |
| LZ4TU-5 | 2026-09-04 11:48:49 | 45.94456 | 20.26415 | 174° | 111km/h | 12274m | 3.3m/s | 0°C | 0% | 0hPa | 0V | 00:00:00 | 00:00:00 | 00:00:00 | |
| LZ4TU-5 | 2026-09-04 11:47:06 | 45.97260 | 20.25495 | 165° | 110km/h | 11649m | 7.7m/s | 0°C | 0% | 0hPa | 0V | 00:00:00 | 00:00:00 | 00:00:00 | |
| LZ4TU-5 | 2026-09-04 11:47:02 | 45.97367 | 20.25447 | 162° | 110km/h | 11619m | 4.7m/s | 0°C | 0% | 0hPa | 0V | 00:00:00 | 00:00:00 | 00:00:00 | |
| LZ4TU-5 | 2026-09-04 11:45:17 | 46.00189 | 20.24627 | 173° | 108km/h | 10972m | 6.1m/s | 0°C | 0% | 0hPa | 0V | 00:00:00 | 00:00:00 | 00:00:00 | |
| LZ4TU-5 | 2026-09-04 11:45:11 | 46.00318 | 20.24593 | 168° | 106km/h | 10937m | 7.8m/s | 0°C | 0% | 0hPa | 0V | 00:00:00 | 00:00:00 | 00:00:00 | |
| GYPAP8-17 | 2026-09-04 11:42:23 | 46.04294 | 20.23513 | 165° | 75km/h | 9833m | 8.7m/s | 0°C | 0% | 0hPa | 0V | 00:00:00 | 00:00:00 | 00:00:00 | |
| GYPAP8-17 | 2026-09-04 11:40:08 | 46.06912 | 20.22282 | 170° | 77km/h | 8947m | 5.5m/s | 0°C | 0% | 0hPa | 0V | 00:00:00 | 00:00:00 | 00:00:00 | |
| OM5KV | 2026-09-04 11:39:32 | 46.07563 | 20.21936 | 166° | 88km/h | 8705m | 7.9m/s | -28.6°C | 49.6% | 341.7hPa | 0V | 00:00:00 | 00:00:00 | 00:00:00 | |
| OM5KV | 2026-09-04 11:39:29 | 46.07627 | 20.21917 | 172° | 82km/h | 8688m | 4.9m/s | -28.5°C | 49.4% | 342.5hPa | 0V | 00:00:00 | 00:00:00 | 00:00:00 | |
| OM5KV | 2026-09-04 11:39:26 | 46.07686 | 20.21906 | 175° | 75km/h | 8673m | 6.6m/s | -28.4°C | 49.3% | 343.3hPa | 0V | 00:00:00 | 00:00:00 | 00:00:00 | |
| OM5KV | 2026-09-04 11:39:21 | 46.07784 | 20.21875 | 160° | 80km/h | 8639m | 6.3m/s | -28.1°C | 52.0% | 344.9hPa | 0V | 00:00:00 | 00:00:00 | 00:00:00 | |
| OM5KV | 2026-09-04 11:39:20 | 46.07803 | 20.21864 | 159° | 82km/h | 8632m | 7.1m/s | -28.1°C | 52.5% | 345.2hPa | 0V | 00:00:00 | 00:00:00 | 00:00:00 | |
| OM5KV | 2026-09-04 11:39:15 | 46.07903 | 20.21799 | 165° | 93km/h | 8606m | 4.2m/s | -27.8°C | 52.9% | 346.5hPa | 0V | 00:00:00 | 00:00:00 | 00:00:00 | |
| OM5KV | 2026-09-04 11:39:11 | 46.07984 | 20.21770 | 165° | 71km/h | 8579m | 7.5m/s | -27.6°C | 52.0% | 347.8hPa | 0V | 00:00:00 | 00:00:00 | 00:00:00 | |
| OM5KV | 2026-09-04 11:39:08 | 46.08034 | 20.21747 | 165° | 69km/h | 8553m | 9.7m/s | -27.5°C | 51.2% | 349.0hPa | 0V | 00:00:00 | 00:00:00 | 00:00:00 | |
| OM5KV | 2026-09-04 11:38:52 | 46.08341 | 20.21616 | 167° | 77km/h | 8448m | 4.1m/s | -26.6°C | 0% | 353.8hPa | 0V | 00:00:00 | 00:00:00 | 00:00:00 | |
| OM5KV | 2026-09-04 11:38:51 | 46.08360 | 20.21609 | 167° | 75km/h | 8444m | 5.5m/s | -26.6°C | 0% | 354.1hPa | 0V | 00:00:00 | 00:00:00 | 00:00:00 | |
| OM5KV | 2026-09-04 11:38:46 | 46.08447 | 20.21577 | 165° | 77km/h | 8419m | 4.1m/s | -26.4°C | 0% | 355.4hPa | 0V | 00:00:00 | 00:00:00 | 00:00:00 | |
| OM5KV | 2026-09-04 11:38:45 | 46.08466 | 20.21569 | 165° | 78km/h | 8413m | 6.8m/s | -26.4°C | 0% | 355.6hPa | 0V | 00:00:00 | 00:00:00 | 00:00:00 | |
| OM5KV | 2026-09-04 11:38:41 | 46.08547 | 20.21526 | 161° | 93km/h | 8394m | 4.1m/s | -26.3°C | 0% | 356.6hPa | 0V | 00:00:00 | 00:00:00 | 00:00:00 | |
| OM5KV | 2026-09-04 11:38:40 | 46.08569 | 20.21515 | 163° | 93km/h | 8389m | 5.9m/s | -26.2°C | 0% | 356.7hPa | 0V | 00:00:00 | 00:00:00 | 00:00:00 | |
| OM5KV | 2026-09-04 11:38:30 | 46.08756 | 20.21411 | 154° | 78km/h | 8325m | 6.8m/s | -25.9°C | 0% | 359.9hPa | 0V | 00:00:00 | 00:00:00 | 00:00:00 | |
| OM5KV | 2026-09-04 11:38:24 | 46.08856 | 20.21345 | 162° | 75km/h | 8284m | 6.8m/s | -25.5°C | 0% | 361.8hPa | 0V | 00:00:00 | 00:00:00 | 00:00:00 | |
| OM5KV | 2026-09-04 11:38:21 | 46.08908 | 20.21319 | 162° | 73km/h | 8259m | 7.4m/s | -25.3°C | 0% | 363.0hPa | 0V | 00:00:00 | 00:00:00 | 00:00:00 | |
| OM5KV | 2026-09-04 11:38:18 | 46.08966 | 20.21290 | 161° | 86km/h | 8239m | 6.0m/s | -25.1°C | 53.2% | 364.1hPa | 0V | 00:00:00 | 00:00:00 | 00:00:00 | |
| OM5KV | 2026-09-04 11:38:17 | 46.08986 | 20.21279 | 160° | 86km/h | 8234m | 3.4m/s | -25.0°C | 0% | 364.5hPa | 0V | 00:00:00 | 00:00:00 | 00:00:00 | |
| OM5KV | 2026-09-04 11:38:13 | 46.09063 | 20.21244 | 169° | 73km/h | 8212m | 7.1m/s | -24.8°C | 0% | 365.5hPa | 0V | 00:00:00 | 00:00:00 | 00:00:00 | |
| OM5KV | 2026-09-04 11:38:11 | 46.09102 | 20.21233 | 170° | 82km/h | 8201m | 5.6m/s | -24.7°C | 0% | 366.0hPa | 0V | 00:00:00 | 00:00:00 | 00:00:00 | |
| OM5KV | 2026-09-04 11:38:08 | 46.09163 | 20.21210 | 164° | 80km/h | 8187m | 5.5m/s | -24.6°C | 0% | 366.7hPa | 0V | 00:00:00 | 00:00:00 | 00:00:00 | |
| OM5KV | 2026-09-04 11:38:05 | 46.09217 | 20.21177 | 151° | 75km/h | 8172m | 4.7m/s | -24.5°C | 0% | 367.5hPa | 0V | 00:00:00 | 00:00:00 | 00:00:00 | |
| OM5KV | 2026-09-04 11:37:59 | 46.09335 | 20.21099 | 161° | 89km/h | 8140m | 9.3m/s | -24.3°C | 0% | 368.9hPa | 0V | 00:00:00 | 00:00:00 | 00:00:00 | |
| OM5KV | 2026-09-04 11:37:53 | 46.09465 | 20.21042 | 159° | 86km/h | 8099m | 6.5m/s | -23.9°C | 0% | 371.3hPa | 0V | 00:00:00 | 00:00:00 | 00:00:00 | |
| OM5KV | 2026-09-04 11:37:52 | 46.09485 | 20.21029 | 156° | 86km/h | 8092m | 6.5m/s | -23.8°C | 0% | 371.7hPa | 0V | 00:00:00 | 00:00:00 | 00:00:00 | |
| OM5KV | 2026-09-04 11:37:49 | 46.09542 | 20.20980 | 147° | 88km/h | 8077m | 5.3m/s | -23.8°C | 0% | 372.5hPa | 0V | 00:00:00 | 00:00:00 | 00:00:00 | |
| OM5KV | 2026-09-04 11:37:46 | 46.09598 | 20.20936 | 158° | 84km/h | 8061m | 6.3m/s | -23.8°C | 0% | 373.3hPa | 0V | 00:00:00 | 00:00:00 | 00:00:00 | |
| OM5KV | 2026-09-04 11:37:44 | 46.09638 | 20.20917 | 168° | 84km/h | 8048m | 6.4m/s | -23.8°C | 0% | 374.0hPa | 0V | 00:00:00 | 00:00:00 | 00:00:00 | |
| OM5KV | 2026-09-04 11:37:34 | 46.09828 | 20.20829 | 164° | 75km/h | 7987m | 4.3m/s | -23.2°C | 0% | 377.5hPa | 0V | 00:00:00 | 00:00:00 | 00:00:00 | |
| OM5KV | 2026-09-04 11:37:32 | 46.09865 | 20.20812 | 160° | 77km/h | 7976m | 4.7m/s | -23.2°C | 0% | 378.1hPa | 0V | 00:00:00 | 00:00:00 | 00:00:00 | |
| OM5KV | 2026-09-04 11:37:29 | 46.09919 | 20.20772 | 151° | 84km/h | 7958m | 5.2m/s | -23.1°C | 0% | 0hPa | 0V | 00:00:00 | 00:00:00 | 00:00:00 | |
| OM5KV | 2026-09-04 11:37:28 | 46.09938 | 20.20757 | 152° | 80km/h | 7953m | 4.8m/s | -23.1°C | 0% | 0hPa | 0V | 00:00:00 | 00:00:00 | 00:00:00 | |
| OM5KV | 2026-09-04 11:37:25 | 46.09990 | 20.20723 | 159° | 69km/h | 7939m | 6.3m/s | -23.1°C | 0% | 380.0hPa | 0V | 00:00:00 | 00:00:00 | 00:00:00 | |
| OM5KV | 2026-09-04 11:37:24 | 46.10006 | 20.20713 | 158° | 68km/h | 7932m | 8.1m/s | -23.1°C | 0% | 0hPa | 0V | 00:00:00 | 00:00:00 | 00:00:00 | |
| OM5KV | 2026-09-04 11:37:23 | 46.10021 | 20.20703 | 153° | 66km/h | 7924m | 7.0m/s | -23.0°C | 0% | 0hPa | 0V | 00:00:00 | 00:00:00 | 00:00:00 | |
| OM5KV | 2026-09-04 11:37:20 | 46.10070 | 20.20662 | 150° | 80km/h | 7906m | 4.1m/s | -22.9°C | 0% | 381.7hPa | 0V | 00:00:00 | 00:00:00 | 00:00:00 | |
| OM5KV | 2026-09-04 11:37:17 | 46.10124 | 20.20625 | 163° | 75km/h | 7890m | 6.7m/s | -22.7°C | 0% | 0hPa | 0V | 00:00:00 | 00:00:00 | 00:00:00 | |
| OM5KV | 2026-09-04 11:37:14 | 46.10197 | 20.20600 | 166° | 80km/h | 7860m | 7.8m/s | -22.5°C | 0% | 384.0hPa | 0V | 00:00:00 | 00:00:00 | 00:00:00 | |
| OM5KV | 2026-09-04 11:37:12 | 46.10216 | 20.20592 | 161° | 77km/h | 7852m | 7.7m/s | -22.5°C | 0% | 0hPa | 0V | 00:00:00 | 00:00:00 | 00:00:00 | |
| OM5KV | 2026-09-04 11:37:07 | 46.10301 | 20.20523 | 153° | 73km/h | 7822m | 5.5m/s | -22.2°C | 0% | 0hPa | 0V | 00:00:00 | 00:00:00 | 00:00:00 | |
| OM5KV | 2026-09-04 11:37:04 | 46.10352 | 20.20500 | 170° | 69km/h | 7805m | 7.4m/s | -22.1°C | 0% | 0hPa | 0V | 00:00:00 | 00:00:00 | 00:00:00 | |
| OM5KV | 2026-09-04 11:37:02 | 46.10385 | 20.20491 | 171° | 62km/h | 7791m | 5.0m/s | 0°C | 0% | 0hPa | 0V | 00:00:00 | 00:00:00 | 00:00:00 | |
| OM5KV | 2026-09-04 11:36:59 | 46.10436 | 20.20475 | 169° | 77km/h | 7776m | 7.8m/s | 0°C | 0% | 0hPa | 0V | 00:00:00 | 00:00:00 | 00:00:00 | |
| OM5KV | 2026-09-04 11:36:52 | 46.10566 | 20.20413 | 153° | 66km/h | 7730m | 8.2m/s | 0°C | 0% | 390.7hPa | 0V | 00:00:00 | 00:00:00 | 00:00:00 | |
| OM5KV | 2026-09-04 11:36:49 | 46.10614 | 20.20375 | 154° | 78km/h | 7711m | 5.2m/s | 0°C | 0% | 0hPa | 0V | 00:00:00 | 00:00:00 | 00:00:00 | |
| OM5KV | 2026-09-04 11:36:48 | 46.10632 | 20.20362 | 158° | 82km/h | 7705m | 6.7m/s | 0°C | 0% | 0hPa | 0V | 00:00:00 | 00:00:00 | 00:00:00 | |
| OM5KV | 2026-09-04 11:36:45 | 46.10691 | 20.20334 | 165° | 78km/h | 7686m | 7.0m/s | 0°C | 0% | 0hPa | 0V | 00:00:00 | 00:00:00 | 00:00:00 | |
| OM5KV | 2026-09-04 11:36:41 | 46.10770 | 20.20305 | 170° | 82km/h | 7657m | 7.9m/s | 0°C | 0% | 0hPa | 0V | 00:00:00 | 00:00:00 | 00:00:00 | |
| OM5KV | 2026-09-04 11:36:35 | 46.10889 | 20.20244 | 157° | 82km/h | 7622m | 9.0m/s | 0°C | 0% | 0hPa | 0V | 00:00:00 | 00:00:00 | 00:00:00 | |
| OM5KV | 2026-09-04 11:36:28 | 46.11023 | 20.20189 | 160° | 78km/h | 7574m | 5.9m/s | 0°C | 0% | 0hPa | 0V | 00:00:00 | 00:00:00 | 00:00:00 | |
| OM5KV | 2026-09-04 11:36:21 | 46.11135 | 20.20103 | 150° | 69km/h | 7537m | 4.2m/s | 0°C | 0% | 0hPa | 0V | 00:00:00 | 00:00:00 | 00:00:00 | |
| GYPAP8-17 | 2026-09-04 11:36:19 | 46.11166 | 20.20079 | 157° | 71km/h | 7527m | 4.7m/s | 0°C | 0% | 0hPa | 0V | 00:00:00 | 00:00:00 | 00:00:00 | |
| OM5KV | 2026-09-04 11:36:15 | 46.11233 | 20.20048 | 162° | 66km/h | 7504m | 5.0m/s | 0°C | 0% | 0hPa | 0V | 00:00:00 | 00:00:00 | 00:00:00 | |
| OM5KV | 2026-09-04 11:36:09 | 46.11333 | 20.19967 | 151° | 80km/h | 7465m | 3.7m/s | 0°C | 0% | 0hPa | 0V | 00:00:00 | 00:00:00 | 00:00:00 | |
| OM5KV | 2026-09-04 11:36:01 | 46.11458 | 20.19863 | 149° | 75km/h | 7416m | 6.8m/s | 0°C | 0% | 0hPa | 0V | 00:00:00 | 00:00:00 | 00:00:00 | |
| GYPAP8-17 | 2026-09-04 11:35:16 | 46.12286 | 20.19461 | 158° | 73km/h | 7137m | 5.5m/s | 0°C | 0% | 0hPa | 0V | 00:00:00 | 00:00:00 | 00:00:00 |